createdAt,value
2019-05-10T00:00:10.346Z,5.30
2019-05-10T00:02:57.738Z,5.22
2019-05-10T00:05:45.427Z,5.70
2019-05-10T00:08:32.674Z,5.08
2019-05-10T00:13:57.694Z,6.05
2019-05-10T00:16:26.765Z,5.10
2019-05-10T00:18:55.426Z,5.75
2019-05-10T00:21:24.087Z,6.08
2019-05-10T00:23:52.849Z,5.97
2019-05-10T00:26:21.570Z,6.28
2019-05-10T00:28:50.357Z,5.80
2019-05-10T00:31:19.130Z,6.08
2019-05-10T00:33:47.809Z,6.15
2019-05-10T00:36:16.475Z,5.80
2019-05-10T00:38:45.286Z,5.60
2019-05-10T00:41:13.953Z,5.78
2019-05-10T00:43:42.708Z,6.28
2019-05-10T00:46:11.383Z,6.53
2019-05-10T00:48:40.163Z,6.03
2019-05-10T00:51:08.902Z,5.97
2019-05-10T00:53:37.591Z,5.90
2019-05-10T00:56:06.276Z,6.60
2019-05-10T00:58:34.965Z,5.97
2019-05-10T01:01:03.609Z,6.30
2019-05-10T01:03:32.373Z,6.47
2019-05-10T01:06:01.097Z,5.97
2019-05-10T01:08:29.784Z,6.20
2019-05-10T01:10:58.439Z,6.78
2019-05-10T01:13:27.131Z,6.47
2019-05-10T01:15:55.816Z,6.58
2019-05-10T01:18:24.512Z,6.72
2019-05-10T01:20:53.170Z,7.08
2019-05-10T01:23:21.852Z,6.50
2019-05-10T01:25:50.515Z,4.30
2019-05-10T01:28:19.194Z,4.60
2019-05-10T01:30:47.928Z,4.47
2019-05-10T01:33:16.618Z,4.80
2019-05-10T01:35:45.330Z,4.70
2019-05-10T01:38:14.026Z,5.10
2019-05-10T01:40:42.685Z,5.53
2019-05-10T01:43:11.472Z,5.90
2019-05-10T01:45:40.241Z,5.60
2019-05-10T01:48:08.932Z,6.40
2019-05-10T01:50:37.592Z,5.80
2019-05-10T01:53:06.358Z,6.15
2019-05-10T01:55:50.444Z,5.90
2019-05-10T01:58:05.482Z,5.87
2019-05-10T02:00:34.226Z,6.47
2019-05-10T02:03:02.938Z,6.35
2019-05-10T02:05:31.585Z,5.90
2019-05-10T02:08:00.264Z,6.15
2019-05-10T02:10:29.618Z,6.35
2019-05-10T02:12:58.303Z,6.62
2019-05-10T02:15:27.028Z,5.62
2019-05-10T02:17:55.715Z,6.72
2019-05-10T02:20:24.362Z,6.55
2019-05-10T02:22:53.026Z,5.90
2019-05-10T02:25:21.837Z,6.30
2019-05-10T02:27:50.490Z,6.40
2019-05-10T02:30:19.391Z,6.35
2019-05-10T02:32:48.047Z,5.90
2019-05-10T02:35:16.862Z,5.78
2019-05-10T02:37:45.518Z,5.42
2019-05-10T02:40:15.156Z,6.08
2019-05-10T02:42:43.802Z,6.22
2019-05-10T02:45:12.812Z,6.25
2019-05-10T02:47:41.458Z,7.15
2019-05-10T02:50:11.264Z,6.42
2019-05-10T02:52:39.936Z,6.47
2019-05-10T02:55:08.770Z,8.90
2019-05-10T02:57:38.286Z,7.33
2019-05-10T03:00:07.893Z,7.50
2019-05-10T03:02:36.991Z,7.33
2019-05-10T03:05:07.733Z,6.22
2019-05-10T03:07:38.338Z,6.30
2019-05-10T03:10:11.438Z,6.50
2019-05-10T03:12:41.900Z,5.78
2019-05-10T03:15:12.442Z,6.60
2019-05-10T03:17:42.069Z,6.62
2019-05-10T03:20:12.602Z,6.50
2019-05-10T03:22:43.344Z,6.83
2019-05-10T03:25:14.375Z,6.60
2019-05-10T03:27:43.289Z,6.72
2019-05-10T03:30:12.336Z,7.92
2019-05-10T03:32:41.096Z,7.65
2019-05-10T03:35:11.089Z,6.90
2019-05-10T03:37:39.957Z,7.08
2019-05-10T03:40:09.382Z,6.92
2019-05-10T03:42:38.119Z,7.03
2019-05-10T03:45:10.151Z,7.17
2019-05-10T03:47:38.810Z,7.00
2019-05-10T03:50:09.212Z,6.97
2019-05-10T03:52:37.895Z,7.08
2019-05-10T03:55:06.978Z,6.92
2019-05-10T03:57:35.724Z,7.40
2019-05-10T04:00:07.368Z,7.90
2019-05-10T04:02:36.093Z,8.25
2019-05-10T04:05:06.787Z,8.90
2019-05-10T04:07:35.449Z,8.75
2019-05-10T04:10:06.158Z,7.97
2019-05-10T04:12:34.901Z,6.40
2019-05-10T04:15:04.731Z,6.62
2019-05-10T04:17:33.386Z,6.80
2019-05-10T04:20:02.121Z,6.47
2019-05-10T04:22:30.769Z,6.53
2019-05-10T04:24:59.469Z,6.15
2019-05-10T04:27:32.060Z,7.03
2019-05-10T04:29:58.550Z,6.37
2019-05-10T04:32:27.555Z,6.90
2019-05-10T04:34:56.287Z,7.05
2019-05-10T04:37:25.043Z,7.72
2019-05-10T04:39:53.747Z,6.35
2019-05-10T04:42:22.391Z,7.60
2019-05-10T04:44:53.503Z,7.78
2019-05-10T04:47:21.462Z,7.67
2019-05-10T04:49:50.125Z,7.17
2019-05-10T04:52:18.818Z,7.15
2019-05-10T04:54:47.485Z,7.10
2019-05-10T04:57:16.185Z,7.60
2019-05-10T04:59:44.919Z,7.58
2019-05-10T05:02:13.710Z,7.80
2019-05-10T05:04:42.364Z,8.83
2019-05-10T05:07:11.035Z,7.60
2019-05-10T05:09:39.708Z,11.00
2019-05-10T05:12:08.404Z,10.60
2019-05-10T05:14:37.069Z,9.58
2019-05-10T05:17:05.759Z,9.00
2019-05-10T05:19:34.433Z,10.85
2019-05-10T05:22:03.166Z,10.72
2019-05-10T05:24:31.877Z,11.20
2019-05-10T05:27:00.619Z,11.12
2019-05-10T05:29:29.304Z,10.60
2019-05-10T05:32:00.950Z,10.43
2019-05-10T05:34:28.502Z,11.20
2019-05-10T05:36:57.197Z,10.25
2019-05-10T05:39:25.944Z,10.90
2019-05-10T05:41:56.538Z,11.08
2019-05-10T05:44:26.006Z,11.05
2019-05-10T05:46:55.630Z,11.38
2019-05-10T05:49:24.368Z,12.18
2019-05-10T05:51:53.056Z,11.85
2019-05-10T05:54:22.693Z,14.05
2019-05-10T05:56:53.073Z,13.50
2019-05-10T05:59:23.644Z,12.98
2019-05-10T06:01:52.450Z,13.88
2019-05-10T06:04:21.133Z,15.70
2019-05-10T06:06:53.813Z,18.35
2019-05-10T06:09:20.309Z,18.50
2019-05-10T06:11:49.093Z,17.98
2019-05-10T06:14:17.762Z,17.57
2019-05-10T06:16:51.230Z,17.37
2019-05-10T06:19:20.532Z,17.32
2019-05-10T06:21:47.321Z,16.42
2019-05-10T06:24:16.080Z,17.23
2019-05-10T06:26:44.752Z,18.75
2019-05-10T06:29:17.225Z,18.20
2019-05-10T06:31:43.994Z,19.67
2019-05-10T06:34:12.755Z,20.40
2019-05-10T06:36:41.448Z,19.98
2019-05-10T06:39:10.137Z,18.17
2019-05-10T06:41:38.913Z,19.85
2019-05-10T06:44:07.584Z,20.45
2019-05-10T06:46:36.279Z,19.60
2019-05-10T06:49:08.365Z,19.95
2019-05-10T06:51:35.506Z,18.67
2019-05-10T06:54:04.353Z,19.15
2019-05-10T06:56:33.017Z,18.70
2019-05-10T06:59:13.098Z,19.32
2019-05-10T07:01:32.127Z,21.25
2019-05-10T07:04:00.839Z,20.43
2019-05-10T07:06:29.573Z,19.50
2019-05-10T07:08:59.537Z,20.95
2019-05-10T07:11:28.326Z,20.92
2019-05-10T07:13:57.027Z,21.70
2019-05-10T07:16:26.134Z,21.60
2019-05-10T07:19:00.530Z,22.30
2019-05-10T07:21:25.466Z,23.20
2019-05-10T07:23:54.158Z,22.20
2019-05-10T07:26:26.340Z,21.85
2019-05-10T07:28:57.513Z,26.52
2019-05-10T07:31:24.016Z,27.02
2019-05-10T07:33:53.047Z,25.80
2019-05-10T07:36:27.458Z,24.72
2019-05-10T07:38:52.120Z,29.82
2019-05-10T07:41:26.570Z,31.40
2019-05-10T07:43:51.219Z,31.48
2019-05-10T07:46:19.898Z,35.17
2019-05-10T07:48:53.506Z,30.37
2019-05-10T07:51:22.863Z,22.05
2019-05-10T07:53:49.700Z,21.50
2019-05-10T07:56:18.409Z,18.65
2019-05-10T07:58:47.187Z,16.95
2019-05-10T08:01:15.892Z,16.40
2019-05-10T08:03:52.122Z,17.82
2019-05-10T08:06:19.225Z,16.90
2019-05-10T08:08:49.490Z,18.52
2019-05-10T08:11:19.126Z,17.32
2019-05-10T08:13:48.647Z,15.30
2019-05-10T08:16:22.706Z,13.78
2019-05-10T08:18:49.796Z,14.70
2019-05-10T08:21:23.845Z,14.58
2019-05-10T08:23:51.928Z,12.73
2019-05-10T08:26:24.220Z,12.23
2019-05-10T08:28:52.417Z,10.88
2019-05-10T08:31:22.190Z,10.72
2019-05-10T08:33:57.183Z,9.85
2019-05-10T08:36:21.959Z,8.00
2019-05-10T08:39:03.055Z,8.08
2019-05-10T08:41:22.787Z,7.78
2019-05-10T08:43:53.141Z,6.47
2019-05-10T08:46:28.594Z,6.87
2019-05-10T08:48:53.886Z,6.42
2019-05-10T08:51:22.934Z,6.83
2019-05-10T08:53:53.582Z,7.03
2019-05-10T08:56:24.118Z,6.58
2019-05-10T08:58:53.620Z,6.33
2019-05-10T09:01:29.523Z,7.05
2019-05-10T09:03:59.155Z,7.70
2019-05-10T09:06:23.558Z,7.25
2019-05-10T09:09:01.363Z,6.92
2019-05-10T09:11:23.218Z,7.33
2019-05-10T09:13:53.374Z,7.42
2019-05-10T09:16:23.679Z,7.87
2019-05-10T09:18:53.523Z,8.10
2019-05-10T09:21:22.515Z,8.78
2019-05-10T09:24:01.222Z,7.58
2019-05-10T09:26:22.716Z,8.20
2019-05-10T09:28:53.467Z,8.65
2019-05-10T09:31:25.483Z,8.78
2019-05-10T09:33:54.314Z,8.60
2019-05-10T09:36:30.756Z,9.85
2019-05-10T09:38:53.223Z,9.48
2019-05-10T09:41:22.628Z,9.58
2019-05-10T09:43:53.591Z,10.10
2019-05-10T09:46:22.870Z,9.65
2019-05-10T09:48:54.481Z,10.30
2019-05-10T09:51:30.181Z,9.78
2019-05-10T09:53:52.545Z,10.58
2019-05-10T09:56:22.728Z,10.35
2019-05-10T09:58:53.767Z,11.30
2019-05-10T10:01:22.554Z,11.95
2019-05-10T10:03:51.302Z,11.20
2019-05-10T10:06:23.833Z,10.13
2019-05-10T10:08:53.537Z,8.78
2019-05-10T10:11:22.399Z,9.68
2019-05-10T10:13:58.981Z,8.40
2019-05-10T10:16:21.519Z,9.53
2019-05-10T10:18:50.182Z,10.48
2019-05-10T10:21:30.818Z,7.97
2019-05-10T10:23:49.408Z,5.80
2019-05-10T10:26:22.197Z,4.47
2019-05-10T10:28:49.577Z,4.33
2019-05-10T10:31:27.071Z,3.80
2019-05-10T10:33:58.227Z,3.33
2019-05-10T10:36:20.227Z,2.87
2019-05-10T10:38:49.785Z,2.67
2019-05-10T10:41:25.863Z,3.12
2019-05-10T10:43:49.305Z,2.92
2019-05-10T10:46:19.892Z,2.75
2019-05-10T10:48:51.049Z,2.65
2019-05-10T10:51:18.957Z,2.80
2019-05-10T10:53:47.621Z,2.80
2019-05-10T10:56:17.611Z,3.22
2019-05-10T10:58:49.612Z,3.37
2019-05-10T11:01:21.520Z,3.30
2019-05-10T11:03:49.088Z,3.70
2019-05-10T11:06:17.678Z,3.67
2019-05-10T11:08:46.364Z,3.40
2019-05-10T11:11:15.093Z,3.70
2019-05-10T11:13:45.800Z,3.37
2019-05-10T11:16:15.525Z,4.03
2019-05-10T11:18:44.611Z,3.65
2019-05-10T11:21:13.323Z,3.52
2019-05-10T11:23:42.235Z,3.30
2019-05-10T11:26:11.037Z,2.83
2019-05-10T11:28:43.919Z,2.52
2019-05-10T11:31:11.411Z,2.58
2019-05-10T11:33:41.450Z,2.77
2019-05-10T11:36:11.415Z,2.45
2019-05-10T11:38:42.015Z,2.80
2019-05-10T11:41:13.590Z,2.33
2019-05-10T11:43:42.032Z,2.40
2019-05-10T11:46:11.727Z,2.60
2019-05-10T11:48:42.161Z,2.60
2019-05-10T11:51:17.180Z,2.50
2019-05-10T11:53:41.726Z,2.67
2019-05-10T12:01:17.544Z,2.40
2019-05-10T12:03:42.543Z,2.47
2019-05-10T12:06:12.108Z,2.25
2019-05-10T12:08:41.836Z,1.90
2019-05-10T12:13:41.356Z,1.98
2019-05-10T12:16:16.103Z,2.17
2019-05-10T12:21:11.407Z,1.80
2019-05-10T12:23:49.995Z,1.90
2019-05-10T12:26:16.068Z,2.10
2019-05-10T12:26:18.268Z,2.25
2019-05-10T12:26:18.978Z,2.70
2019-05-10T12:26:27.159Z,3.10
2019-05-10T12:28:41.037Z,2.17
2019-05-10T12:31:15.179Z,1.60
2019-05-10T12:33:44.537Z,1.70
2019-05-10T12:36:22.388Z,1.47
2019-05-10T12:38:40.982Z,1.90
2019-05-10T12:41:09.652Z,1.40
2019-05-10T12:43:43.150Z,1.50
2019-05-10T12:46:10.503Z,1.57
2019-05-10T12:48:39.155Z,1.60
2019-05-10T12:51:11.813Z,2.10
2019-05-10T12:53:44.416Z,1.90
2019-05-10T12:56:08.596Z,2.00
2019-05-10T12:58:37.393Z,2.40
2019-05-10T13:01:06.066Z,2.33
2019-05-10T13:03:34.743Z,2.22
2019-05-10T13:06:03.459Z,2.45
2019-05-10T13:08:32.184Z,2.50
2019-05-10T13:11:00.832Z,2.52
2019-05-10T13:13:30.151Z,2.45
2019-05-10T13:16:03.648Z,2.08
2019-05-10T13:21:00.977Z,2.47
2019-05-10T13:23:29.680Z,2.90
2019-05-10T13:26:23.793Z,2.50
2019-05-10T13:28:52.444Z,2.40
2019-05-10T13:31:21.326Z,2.50
2019-05-10T13:33:50.015Z,2.40
2019-05-10T13:36:18.712Z,2.83
2019-05-10T13:38:49.210Z,2.75
2019-05-10T13:41:23.724Z,2.60
2019-05-10T13:43:48.407Z,2.52
2019-05-10T13:46:17.156Z,2.50
2019-05-10T13:48:45.866Z,2.22
2019-05-10T13:51:14.594Z,2.40
2019-05-10T13:53:43.241Z,1.77
2019-05-10T13:56:11.951Z,2.10
2019-05-10T13:58:40.648Z,2.00
2019-05-10T14:01:13.185Z,2.40
2019-05-10T14:03:44.293Z,2.12
2019-05-10T14:06:10.420Z,2.25
2019-05-10T14:08:42.785Z,1.98
2019-05-10T14:11:09.512Z,1.87
2019-05-10T14:13:41.667Z,2.33
2019-05-10T14:16:18.611Z,1.82
2019-05-10T14:18:39.341Z,1.98
2019-05-10T14:21:08.121Z,2.15
2019-05-10T14:23:37.406Z,2.17
2019-05-10T14:26:09.145Z,2.47
2019-05-10T14:28:36.595Z,2.20
2019-05-10T14:31:05.401Z,2.15
2019-05-10T14:33:34.127Z,2.08
2019-05-10T14:36:03.400Z,1.85
2019-05-10T14:38:32.254Z,2.40
2019-05-10T14:41:04.042Z,2.60
2019-05-10T14:43:31.355Z,2.10
2019-05-10T14:46:00.092Z,2.47
2019-05-10T14:48:30.731Z,2.25
2019-05-10T14:51:03.319Z,2.50
2019-05-10T14:53:29.733Z,2.35
2019-05-10T14:55:58.529Z,2.20
2019-05-10T14:58:27.287Z,2.45
2019-05-10T15:00:55.961Z,2.25
2019-05-10T15:03:24.721Z,2.20
2019-05-10T15:05:55.649Z,1.98
2019-05-10T15:08:24.016Z,2.10
